메인 페이지
METAR-TAF:

METAR-TAF

공항 :

Angelina County Airport

Lufkin, 텍사스, 미국

위도: 31-14-02N, 경도: 094-45-00W, 고도: 90m

현재 날씨관측

예보는 15분 전, 14:53시(UTC)에 발표되었습니다.
10kt, 순간 최대 풍속 15kt
온도 28°C
습도 79%
기압 1021 hPa
시정: 16.1km
고도 1600ft 상공 구름 조금
고도 2500ft 상공 구름 많음

METAR: KLFK 201453Z AUTO 08010G15KT 10SM FEW016 BKN025 28/24 A3015 RMK AO2 SLP205 T02830239 53020

시각: 10:08 (15:08 UTC)

예보

예보는 3 시간 47분 전, 11:21시(UTC)에 발표되었습니다.
예보 대상 시간: 20일 12시부터 21일 12시까지 (UTC)
동북동7kt
시정: 10km
고도 3000ft 상공 구름 보통
고도 25000ft 상공 구름 보통
일시적
20일 12시부터 20일 15시까지 (UTC)
고도 3000ft 상공 구름 많음
20일 1600시부터 (UTC)
12kt, 순간 최대 풍속 18kt
시정: 10km
고도 4000ft 상공 구름 보통
고도 25000ft 상공 구름 보통
21일 0000시부터 (UTC)
동북동6kt
시정: 10km
고도 5000ft 상공 구름 보통
고도 25000ft 상공 구름 보통
21일 0600시부터 (UTC)
여러 방향의 바람 3kt
시정: 10km
고도 5000ft 상공 구름 보통
고도 25000ft 상공 구름 보통

TAF: KLFK 201121Z 2012/2112 07007KT P6SM SCT030 SCT250 TEMPO 2012/2015 BKN030 FM201600 09012G18KT P6SM SCT040 SCT250 FM210000 07006KT P6SM SCT050 SCT250 FM210600 VRB03KT P6SM SCT050 SCT250

4,000개 이상의 공항 관측 자료 및 예보 (METAR 및 TAF 보고).

지도상에서 검색 가능한 기상관측소가 노란 점과 빨간 점으로 표시되어 있습니다.

기상관측소 명을 보려면 표시 위로 마우스를 이동하세요.

날씨 관측과 예보를 보려면 클릭하세요.

지도 변경 : 확대하려면 엑스 표시가 있는 녹색 버튼, 축소하려면 빼기 표시가 있는 녹색 버튼, 다음 페이지의 지도를 보려면 녹색 화살표를 클릭하세요.


METAR-TAF: